createdAt,value
2023-04-26T00:01:58.679Z,6.89
2023-04-26T00:04:31.686Z,6.61
2023-04-26T00:07:04.046Z,6.40
2023-04-26T00:09:36.365Z,6.79
2023-04-26T00:12:08.992Z,6.86
2023-04-26T00:14:43.996Z,6.45
2023-04-26T00:17:16.309Z,6.58
2023-04-26T00:19:48.527Z,6.48
2023-04-26T00:22:20.730Z,6.48
2023-04-26T00:24:52.998Z,6.91
2023-04-26T00:27:29.591Z,6.66
2023-04-26T00:30:04.402Z,7.09
2023-04-26T00:32:36.715Z,6.85
2023-04-26T00:35:09.463Z,6.37
2023-04-26T00:37:41.733Z,6.50
2023-04-26T00:40:16.384Z,6.28
2023-04-26T00:42:48.558Z,6.29
2023-04-26T00:45:23.477Z,6.79
2023-04-26T00:47:56.887Z,7.13
2023-04-26T00:50:32.284Z,6.89
2023-04-26T00:53:07.854Z,7.16
2023-04-26T00:55:40.513Z,6.93
2023-04-26T00:58:12.741Z,6.83
2023-04-26T01:00:47.639Z,6.81
2023-04-26T01:03:20.109Z,7.07
2023-04-26T01:05:53.210Z,7.21
2023-04-26T01:08:25.901Z,7.40
2023-04-26T01:11:01.673Z,7.01
2023-04-26T01:13:35.814Z,6.59
2023-04-26T01:16:12.590Z,6.84
2023-04-26T01:18:45.756Z,6.90
2023-04-26T01:21:24.677Z,7.15
2023-04-26T01:23:59.396Z,7.24
2023-04-26T01:26:31.813Z,7.23
2023-04-26T01:29:04.527Z,7.15
2023-04-26T01:31:36.750Z,7.11
2023-04-26T01:34:09.044Z,7.53
2023-04-26T01:36:41.389Z,7.62
2023-04-26T01:39:16.196Z,7.16
2023-04-26T01:41:48.362Z,7.47
2023-04-26T01:44:20.864Z,7.51
2023-04-26T01:46:53.055Z,7.66
2023-04-26T01:49:25.276Z,8.00
2023-04-26T01:51:57.832Z,8.03
2023-04-26T01:54:32.657Z,8.34
2023-04-26T01:57:05.445Z,8.17
2023-04-26T01:59:37.639Z,8.73
2023-04-26T02:02:09.981Z,9.38
2023-04-26T02:04:42.411Z,8.93
2023-04-26T02:07:14.651Z,8.94
2023-04-26T02:09:49.404Z,8.54
2023-04-26T02:12:21.581Z,8.86
2023-04-26T02:14:53.855Z,8.30
2023-04-26T02:17:26.648Z,8.24
2023-04-26T02:19:58.953Z,8.35
2023-04-26T02:22:31.438Z,8.17
2023-04-26T02:25:06.224Z,8.27
2023-04-26T02:27:38.497Z,8.46
2023-04-26T02:30:12.181Z,7.98
2023-04-26T02:32:44.393Z,8.41
2023-04-26T02:35:16.675Z,8.36
2023-04-26T02:37:49.547Z,8.49
2023-04-26T02:40:24.975Z,8.49
2023-04-26T02:42:57.157Z,8.19
2023-04-26T02:45:29.456Z,8.01
2023-04-26T02:48:01.619Z,8.39
2023-04-26T02:50:34.210Z,7.92
2023-04-26T02:53:06.435Z,8.34
2023-04-26T02:55:41.799Z,8.25
2023-04-26T02:58:13.966Z,8.23
2023-04-26T03:00:50.723Z,8.19
2023-04-26T03:03:23.348Z,9.01
2023-04-26T03:05:55.776Z,9.14
2023-04-26T03:08:27.931Z,9.40
2023-04-26T03:11:02.672Z,9.58
2023-04-26T03:13:34.843Z,9.78
2023-04-26T03:16:07.128Z,10.45
2023-04-26T03:18:39.530Z,10.27
2023-04-26T03:21:12.066Z,10.26
2023-04-26T03:23:44.364Z,10.12
2023-04-26T03:26:19.333Z,10.74
2023-04-26T03:28:51.740Z,10.82
2023-04-26T03:31:24.301Z,10.63
2023-04-26T03:33:56.723Z,10.82
2023-04-26T03:36:28.954Z,10.42
2023-04-26T03:39:01.577Z,10.61
2023-04-26T03:41:39.678Z,10.81
2023-04-26T03:44:12.576Z,10.49
2023-04-26T03:46:44.820Z,10.68
2023-04-26T03:49:16.964Z,11.51
2023-04-26T03:51:49.140Z,11.08
2023-04-26T03:54:21.284Z,11.21
2023-04-26T03:56:56.139Z,10.75
2023-04-26T03:59:28.338Z,10.20
2023-04-26T04:02:01.112Z,10.34
2023-04-26T04:04:33.438Z,9.87
2023-04-26T04:07:05.965Z,9.74
2023-04-26T04:09:38.145Z,9.48
2023-04-26T04:12:12.946Z,9.42
2023-04-26T04:14:45.174Z,9.79
2023-04-26T04:17:17.404Z,9.86
2023-04-26T04:19:49.893Z,9.76
2023-04-26T04:22:22.055Z,10.29
2023-04-26T04:24:54.563Z,10.12
2023-04-26T04:27:29.460Z,10.83
2023-04-26T04:30:03.743Z,11.08
2023-04-26T04:32:36.073Z,11.54
2023-04-26T04:35:08.746Z,11.75
2023-04-26T04:37:40.998Z,11.54
2023-04-26T04:40:14.848Z,11.25
2023-04-26T04:42:50.228Z,11.01
2023-04-26T04:45:22.685Z,10.86
2023-04-26T04:47:54.988Z,11.09
2023-04-26T04:50:27.335Z,11.39
2023-04-26T04:52:59.490Z,10.81
2023-04-26T04:55:32.315Z,10.81
2023-04-26T04:58:07.610Z,10.88
2023-04-26T05:00:40.428Z,11.69
2023-04-26T05:03:12.749Z,11.66
2023-04-26T05:05:45.512Z,12.11
2023-04-26T05:08:17.653Z,12.09
2023-04-26T05:10:50.115Z,11.92
2023-04-26T05:13:24.920Z,11.94
2023-04-26T05:15:57.137Z,11.89
2023-04-26T05:18:29.369Z,11.36
2023-04-26T05:21:02.246Z,11.38
2023-04-26T05:23:34.588Z,10.51
2023-04-26T05:26:07.782Z,11.11
2023-04-26T05:28:42.571Z,11.26
2023-04-26T05:31:14.778Z,11.07
2023-04-26T05:33:46.938Z,11.20
2023-04-26T05:36:19.667Z,11.44
2023-04-26T05:38:51.869Z,11.20
2023-04-26T05:41:24.031Z,11.52
2023-04-26T05:43:58.864Z,11.16
2023-04-26T05:46:31.133Z,11.18
2023-04-26T05:49:03.299Z,11.74
2023-04-26T05:51:35.482Z,11.31
2023-04-26T05:54:07.901Z,11.39
2023-04-26T05:56:40.114Z,11.52
2023-04-26T05:59:15.058Z,12.13
2023-04-26T06:01:47.263Z,12.65
2023-04-26T06:04:19.651Z,11.99
2023-04-26T06:06:52.024Z,11.59
2023-04-26T06:09:24.175Z,11.27
2023-04-26T06:11:56.453Z,10.71
2023-04-26T06:14:31.217Z,10.08
2023-04-26T06:17:03.519Z,10.49
2023-04-26T06:19:35.766Z,9.86
2023-04-26T06:22:07.869Z,9.01
2023-04-26T06:24:40.045Z,9.01
2023-04-26T06:27:12.449Z,9.01
2023-04-26T06:29:47.828Z,8.44
2023-04-26T06:32:19.995Z,8.51
2023-04-26T06:34:52.163Z,7.66
2023-04-26T06:37:24.295Z,7.14
2023-04-26T06:39:56.458Z,6.41
2023-04-26T06:42:28.633Z,6.18
2023-04-26T06:45:03.512Z,5.45
2023-04-26T06:47:35.790Z,5.50
2023-04-26T06:50:08.567Z,5.31
2023-04-26T06:52:40.828Z,5.85
2023-04-26T06:55:14.430Z,5.29
2023-04-26T06:57:46.586Z,6.09
2023-04-26T07:00:22.062Z,5.95
2023-04-26T07:02:54.328Z,6.06
2023-04-26T07:05:26.908Z,5.91
2023-04-26T07:07:59.022Z,6.12
2023-04-26T07:10:32.310Z,6.36
2023-04-26T07:13:06.420Z,5.54
2023-04-26T07:15:42.461Z,5.07
2023-04-26T07:18:14.806Z,5.30
2023-04-26T07:20:46.984Z,5.90
2023-04-26T07:23:19.131Z,6.07
2023-04-26T07:25:51.333Z,5.61
2023-04-26T07:28:23.427Z,5.81
2023-04-26T07:30:58.548Z,5.62
2023-04-26T07:33:31.282Z,4.34
2023-04-26T07:36:04.670Z,3.92
2023-04-26T07:38:36.893Z,3.71
2023-04-26T07:41:09.125Z,3.55
2023-04-26T07:43:41.614Z,3.79
2023-04-26T07:46:16.412Z,4.14
2023-04-26T07:48:48.797Z,3.98
2023-04-26T07:51:21.138Z,4.19
2023-04-26T07:53:53.703Z,4.41
2023-04-26T07:56:28.118Z,4.36
2023-04-26T07:59:00.265Z,4.89
2023-04-26T08:01:35.163Z,4.29
2023-04-26T08:04:08.477Z,4.36
2023-04-26T08:06:45.171Z,3.81
2023-04-26T08:09:17.347Z,3.25
2023-04-26T08:11:49.554Z,2.83
2023-04-26T08:14:21.789Z,3.03
2023-04-26T08:16:56.548Z,3.30
2023-04-26T08:19:32.882Z,2.55
2023-04-26T08:22:05.930Z,2.31
2023-04-26T08:24:38.130Z,2.05
2023-04-26T08:27:10.290Z,2.06
2023-04-26T08:29:43.151Z,1.81
2023-04-26T08:32:18.548Z,1.95
2023-04-26T08:34:51.182Z,1.99
2023-04-26T08:37:23.297Z,2.14
2023-04-26T08:39:55.552Z,2.04
2023-04-26T08:42:31.667Z,2.13
2023-04-26T08:45:05.830Z,2.18
2023-04-26T08:47:47.826Z,1.92
2023-04-26T08:50:23.383Z,1.96
2023-04-26T08:52:57.106Z,2.03
2023-04-26T08:55:31.176Z,1.84
2023-04-26T08:58:05.081Z,2.09
2023-04-26T09:00:37.434Z,2.43
2023-04-26T09:03:12.298Z,2.31
2023-04-26T09:05:46.551Z,2.14
2023-04-26T09:08:22.199Z,2.57
2023-04-26T09:10:54.351Z,2.91
2023-04-26T09:13:32.600Z,2.85
2023-04-26T09:16:05.258Z,2.68
2023-04-26T09:18:51.052Z,2.79
2023-04-26T09:21:23.909Z,2.62
2023-04-26T09:24:04.856Z,2.78
2023-04-26T09:26:37.113Z,2.89
2023-04-26T09:29:20.767Z,2.58
2023-04-26T09:31:54.540Z,2.49
2023-04-26T09:34:30.764Z,2.31
2023-04-26T09:37:02.965Z,2.27
2023-04-26T09:39:37.740Z,2.41
2023-04-26T09:42:11.476Z,2.44
2023-04-26T09:44:43.931Z,2.34
2023-04-26T09:47:16.416Z,2.44
2023-04-26T09:49:52.806Z,2.21
2023-04-26T09:52:25.558Z,2.21
2023-04-26T09:54:59.134Z,2.14
2023-04-26T09:57:31.579Z,2.42
2023-04-26T10:00:05.710Z,2.20
2023-04-26T10:02:39.250Z,2.01
2023-04-26T10:05:15.125Z,2.14
2023-04-26T10:07:47.603Z,2.30
2023-04-26T10:10:21.803Z,2.14
2023-04-26T10:12:54.145Z,2.27
2023-04-26T10:15:26.474Z,2.13
2023-04-26T10:17:58.727Z,1.93
2023-04-26T10:20:34.750Z,1.99
2023-04-26T10:23:17.320Z,2.07
2023-04-26T10:25:49.566Z,1.99
2023-04-26T10:28:22.417Z,2.04
2023-04-26T10:31:02.973Z,1.81
2023-04-26T10:33:35.282Z,2.06
2023-04-26T10:36:15.449Z,2.25
2023-04-26T10:39:24.964Z,2.01
2023-04-26T10:42:27.818Z,2.16
2023-04-26T10:45:00.790Z,2.32
2023-04-26T10:47:35.137Z,2.19
2023-04-26T10:50:12.940Z,2.26
2023-04-26T10:53:10.235Z,2.36
2023-04-26T10:55:46.784Z,2.36
2023-04-26T10:58:32.065Z,2.07
2023-04-26T11:01:11.996Z,2.11
2023-04-26T11:03:46.085Z,2.41
2023-04-26T11:06:19.425Z,2.31
2023-04-26T11:08:55.155Z,2.47
2023-04-26T11:11:32.966Z,2.40
2023-04-26T11:14:07.212Z,2.49
2023-04-26T11:16:39.588Z,2.13
2023-04-26T11:19:14.302Z,2.08
2023-04-26T11:21:46.465Z,2.05
2023-04-26T11:24:29.596Z,2.31
2023-04-26T11:27:03.235Z,2.29
2023-04-26T11:29:35.395Z,2.21
2023-04-26T11:32:08.152Z,2.24
2023-04-26T11:34:41.982Z,2.28
2023-04-26T11:37:14.191Z,2.24
2023-04-26T11:39:51.456Z,2.26
2023-04-26T11:42:29.788Z,2.24
2023-04-26T11:45:02.276Z,2.35
2023-04-26T11:47:35.408Z,2.34
2023-04-26T11:50:09.274Z,2.36
2023-04-26T11:52:42.672Z,2.51
2023-04-26T11:55:17.505Z,2.40
2023-04-26T11:57:49.849Z,2.47
2023-04-26T12:00:23.211Z,2.42
2023-04-26T12:02:57.763Z,2.36
2023-04-26T12:05:32.356Z,2.40
2023-04-26T12:08:05.824Z,2.34
2023-04-26T12:10:42.364Z,2.26
2023-04-26T12:13:18.825Z,2.47
2023-04-26T12:15:52.722Z,2.38
2023-04-26T12:18:28.650Z,2.26
2023-04-26T12:21:03.344Z,2.21
2023-04-26T12:23:42.267Z,2.30
2023-04-26T12:26:17.406Z,2.54
2023-04-26T12:28:49.731Z,2.34
2023-04-26T12:31:21.970Z,2.18
2023-04-26T12:33:54.142Z,2.46
2023-04-26T12:36:26.445Z,2.49
2023-04-26T12:38:59.168Z,2.59
2023-04-26T12:41:34.004Z,2.61
2023-04-26T12:44:06.564Z,2.76
2023-04-26T12:46:38.966Z,2.43
2023-04-26T12:49:11.329Z,2.59
2023-04-26T12:51:43.590Z,2.66
2023-04-26T12:54:16.099Z,3.09
2023-04-26T12:56:51.091Z,2.79
2023-04-26T12:59:23.248Z,2.89
2023-04-26T13:01:55.469Z,2.78
2023-04-26T13:04:27.969Z,2.78
2023-04-26T13:07:00.578Z,2.63
2023-04-26T13:09:33.262Z,2.75
2023-04-26T13:12:08.693Z,2.88
2023-04-26T13:14:41.404Z,3.06
2023-04-26T13:17:13.587Z,3.04
2023-04-26T13:19:45.781Z,3.17
2023-04-26T13:22:17.967Z,3.11
2023-04-26T13:24:50.409Z,3.19
2023-04-26T13:27:25.141Z,3.15
2023-04-26T13:29:57.808Z,3.03
2023-04-26T13:32:30.182Z,3.24
2023-04-26T13:35:02.837Z,2.89
2023-04-26T13:37:34.992Z,3.16
2023-04-26T13:40:07.653Z,3.16
2023-04-26T13:42:42.628Z,3.26
2023-04-26T13:45:17.072Z,3.35
2023-04-26T13:47:51.024Z,3.37
2023-04-26T13:50:23.309Z,3.34
2023-04-26T13:52:55.619Z,3.49
2023-04-26T13:55:29.983Z,3.69
2023-04-26T13:58:04.797Z,3.87
2023-04-26T14:00:37.029Z,3.63
2023-04-26T14:03:09.271Z,3.51
2023-04-26T14:05:41.591Z,3.75
2023-04-26T14:08:14.022Z,3.53
2023-04-26T14:10:46.352Z,3.35
2023-04-26T14:13:21.351Z,3.30
2023-04-26T14:15:54.063Z,3.02
2023-04-26T14:18:26.236Z,3.23
2023-04-26T14:20:58.409Z,3.57
2023-04-26T14:23:30.628Z,3.46
2023-04-26T14:26:02.810Z,3.31
2023-04-26T14:28:37.679Z,3.20
2023-04-26T14:31:09.940Z,3.49
2023-04-26T14:33:42.212Z,3.30
2023-04-26T14:36:14.531Z,3.06
2023-04-26T14:38:47.036Z,2.92
2023-04-26T14:41:19.679Z,3.20
2023-04-26T14:43:54.617Z,2.85
2023-04-26T14:46:26.880Z,2.79
2023-04-26T14:48:59.147Z,2.74
2023-04-26T14:51:32.166Z,2.68
2023-04-26T14:54:04.385Z,2.84
2023-04-26T14:56:37.480Z,2.80
2023-04-26T14:59:12.222Z,3.15
2023-04-26T15:01:44.455Z,3.15
2023-04-26T15:04:16.801Z,2.99
2023-04-26T15:06:49.177Z,3.14
2023-04-26T15:09:21.869Z,3.26
2023-04-26T15:11:54.421Z,2.99
2023-04-26T15:14:29.203Z,2.77
2023-04-26T15:17:01.537Z,3.02
2023-04-26T15:19:34.292Z,3.23
2023-04-26T15:22:06.462Z,3.15
2023-04-26T15:24:40.646Z,3.21
2023-04-26T15:27:12.905Z,3.12
2023-04-26T15:29:47.613Z,3.00
2023-04-26T15:32:19.732Z,3.13
2023-04-26T15:34:52.010Z,3.09
2023-04-26T15:37:24.151Z,3.13
2023-04-26T15:39:56.338Z,3.14
2023-04-26T15:42:28.510Z,3.23
2023-04-26T15:45:03.509Z,3.44
2023-04-26T15:47:35.736Z,3.18
2023-04-26T15:50:09.389Z,3.35
2023-04-26T15:52:42.678Z,3.10
2023-04-26T15:55:15.134Z,3.63
2023-04-26T15:57:47.390Z,3.26
2023-04-26T16:00:22.877Z,3.29
2023-04-26T16:02:55.199Z,3.54
2023-04-26T16:05:27.992Z,3.20
2023-04-26T16:08:00.539Z,2.94
2023-04-26T16:10:32.742Z,3.05
2023-04-26T16:13:04.992Z,2.69
2023-04-26T16:15:39.818Z,2.83
2023-04-26T16:18:12.185Z,2.81
2023-04-26T16:20:44.495Z,2.96
2023-04-26T16:23:16.819Z,3.19
2023-04-26T16:25:49.314Z,3.11
2023-04-26T16:28:21.506Z,3.07
2023-04-26T16:30:56.316Z,3.10
2023-04-26T16:33:28.932Z,3.10
2023-04-26T16:36:01.257Z,2.99
2023-04-26T16:38:33.401Z,3.08
2023-04-26T16:41:06.194Z,3.24
2023-04-26T16:43:38.548Z,3.16
2023-04-26T16:46:13.460Z,3.26
2023-04-26T16:48:45.767Z,3.36
2023-04-26T16:51:18.098Z,3.01
2023-04-26T16:53:50.243Z,3.42
2023-04-26T16:56:22.397Z,3.25
2023-04-26T16:58:54.527Z,3.51
2023-04-26T17:01:29.320Z,3.54
2023-04-26T17:04:02.115Z,3.51
2023-04-26T17:06:34.611Z,3.26
2023-04-26T17:09:08.356Z,3.41
2023-04-26T17:11:43.713Z,3.16
2023-04-26T17:14:15.957Z,3.32
2023-04-26T17:16:50.765Z,3.56
2023-04-26T17:19:23.035Z,3.56
2023-04-26T17:21:55.418Z,3.36
2023-04-26T17:24:27.553Z,3.46
2023-04-26T17:26:59.669Z,3.44
2023-04-26T17:29:31.889Z,3.34
2023-04-26T17:32:06.746Z,3.26
2023-04-26T17:34:39.034Z,3.37
2023-04-26T17:37:11.317Z,3.39
2023-04-26T17:39:43.489Z,3.44
2023-04-26T17:42:15.641Z,3.51
2023-04-26T17:44:47.837Z,3.57
2023-04-26T17:47:22.591Z,3.17
2023-04-26T17:49:54.834Z,3.24
2023-04-26T17:52:27.179Z,3.01
2023-04-26T17:54:59.725Z,3.21
2023-04-26T17:57:31.927Z,3.14
2023-04-26T18:00:04.282Z,3.19
2023-04-26T18:02:42.456Z,3.96
2023-04-26T18:05:15.497Z,4.39
2023-04-26T18:07:47.674Z,3.75
2023-04-26T18:10:19.800Z,4.21
2023-04-26T18:12:52.045Z,5.11
2023-04-26T18:15:24.616Z,4.39
2023-04-26T18:17:59.458Z,4.65
2023-04-26T18:20:31.750Z,5.74
2023-04-26T18:23:04.148Z,6.00
2023-04-26T18:25:36.454Z,4.64
2023-04-26T18:28:08.909Z,4.25
2023-04-26T18:30:41.269Z,3.74
2023-04-26T18:33:16.473Z,4.11
2023-04-26T18:35:48.653Z,4.30
2023-04-26T18:38:21.043Z,8.18
2023-04-26T18:40:53.851Z,14.34
2023-04-26T18:43:26.121Z,11.88
2023-04-26T18:45:59.042Z,8.13
2023-04-26T18:48:33.842Z,7.71
2023-04-26T18:51:06.321Z,8.00
2023-04-26T18:53:38.506Z,8.55
2023-04-26T18:56:11.136Z,6.61
2023-04-26T18:58:43.301Z,7.71
2023-04-26T19:01:15.500Z,11.29
2023-04-26T19:03:51.222Z,9.26
2023-04-26T19:06:23.527Z,5.99
2023-04-26T19:08:55.705Z,7.65
2023-04-26T19:11:28.415Z,8.46
2023-04-26T19:14:01.653Z,9.53
2023-04-26T19:16:33.895Z,6.58
2023-04-26T19:19:08.725Z,5.40
2023-04-26T19:21:40.948Z,5.79
2023-04-26T19:24:13.090Z,5.88
2023-04-26T19:26:45.237Z,5.44
2023-04-26T19:29:17.636Z,4.47
2023-04-26T19:31:49.970Z,4.21
2023-04-26T19:34:25.027Z,3.99
2023-04-26T19:36:57.183Z,4.23
2023-04-26T19:39:29.370Z,4.09
2023-04-26T19:42:01.677Z,5.50
2023-04-26T19:44:34.099Z,7.64
2023-04-26T19:47:06.446Z,12.79
2023-04-26T19:49:41.273Z,20.41
2023-04-26T19:52:13.640Z,18.26
2023-04-26T19:54:45.882Z,30.74
2023-04-26T19:57:18.107Z,22.98
2023-04-26T19:59:50.349Z,25.89
2023-04-26T20:02:22.772Z,28.80
2023-04-26T20:04:57.700Z,13.19
2023-04-26T20:07:30.006Z,12.32
2023-04-26T20:10:02.353Z,21.80
2023-04-26T20:12:34.574Z,11.56
2023-04-26T20:15:07.558Z,14.58
2023-04-26T20:17:39.997Z,15.91
2023-04-26T20:20:16.725Z,8.84
2023-04-26T20:22:49.003Z,6.49
2023-04-26T20:25:22.439Z,9.45
2023-04-26T20:27:56.839Z,13.04
2023-04-26T20:30:31.006Z,10.94
2023-04-26T20:33:03.299Z,9.09
2023-04-26T20:35:38.172Z,5.84
2023-04-26T20:38:10.360Z,5.71
2023-04-26T20:40:42.555Z,5.38
2023-04-26T20:43:14.855Z,5.17
2023-04-26T20:45:47.170Z,6.38
2023-04-26T20:48:19.394Z,5.48
2023-04-26T20:50:54.149Z,5.37
2023-04-26T20:53:27.206Z,5.30
2023-04-26T20:55:59.430Z,6.04
2023-04-26T20:58:31.647Z,6.25
2023-04-26T21:01:06.488Z,5.87
2023-04-26T21:03:39.584Z,6.28
2023-04-26T21:06:14.481Z,6.86
2023-04-26T21:08:46.652Z,7.14
2023-04-26T21:11:18.830Z,7.94
2023-04-26T21:13:51.131Z,8.44
2023-04-26T21:16:23.350Z,8.94
2023-04-26T21:18:55.521Z,8.21
2023-04-26T21:21:31.235Z,7.70
2023-04-26T21:24:04.079Z,7.48
2023-04-26T21:26:36.346Z,8.43
2023-04-26T21:29:08.936Z,10.18
2023-04-26T21:31:41.420Z,9.51
2023-04-26T21:34:13.631Z,8.55
2023-04-26T21:36:48.498Z,7.26
2023-04-26T21:39:21.010Z,6.61
2023-04-26T21:41:53.203Z,5.70
2023-04-26T21:44:25.394Z,5.22
2023-04-26T21:46:57.559Z,5.38
2023-04-26T21:49:29.734Z,5.02
2023-04-26T21:52:04.476Z,5.30
2023-04-26T21:54:36.781Z,5.88
2023-04-26T21:57:09.540Z,5.99
2023-04-26T21:59:43.844Z,6.06
2023-04-26T22:02:16.222Z,6.21
2023-04-26T22:04:48.499Z,6.49
2023-04-26T22:07:23.278Z,9.47
2023-04-26T22:09:55.488Z,11.35
2023-04-26T22:12:27.731Z,10.33
2023-04-26T22:15:00.164Z,8.28
2023-04-26T22:17:32.476Z,6.77
2023-04-26T22:20:05.432Z,6.31
2023-04-26T22:22:40.143Z,5.74
2023-04-26T22:25:13.363Z,5.44
2023-04-26T22:27:45.498Z,5.66
2023-04-26T22:30:25.512Z,5.07
2023-04-26T22:32:59.961Z,5.33
2023-04-26T22:35:32.829Z,5.54
2023-04-26T22:38:07.606Z,5.23
2023-04-26T22:40:39.863Z,5.48
2023-04-26T22:43:12.056Z,5.67
2023-04-26T22:45:45.216Z,5.44
2023-04-26T22:48:17.435Z,5.37
2023-04-26T22:50:52.463Z,5.34
2023-04-26T22:53:27.249Z,5.31
2023-04-26T22:55:59.424Z,5.64
2023-04-26T22:58:31.636Z,5.26
2023-04-26T23:01:03.875Z,6.01
2023-04-26T23:03:38.761Z,5.79
2023-04-26T23:06:11.505Z,5.92
2023-04-26T23:08:46.287Z,6.14
2023-04-26T23:11:19.061Z,5.69
2023-04-26T23:13:52.974Z,6.01
2023-04-26T23:16:25.650Z,6.51
2023-04-26T23:18:57.997Z,6.70
2023-04-26T23:21:30.602Z,7.14
2023-04-26T23:24:05.340Z,7.98
2023-04-26T23:26:37.536Z,7.47
2023-04-26T23:29:09.856Z,6.79
2023-04-26T23:31:42.210Z,6.76
2023-04-26T23:34:14.526Z,6.59
2023-04-26T23:36:46.852Z,6.89
2023-04-26T23:39:21.978Z,7.81
2023-04-26T23:41:54.078Z,7.57
2023-04-26T23:44:26.197Z,7.59
2023-04-26T23:46:58.394Z,7.50
2023-04-26T23:49:30.644Z,6.80
2023-04-26T23:52:02.809Z,7.36
2023-04-26T23:54:37.784Z,7.34
2023-04-26T23:57:09.974Z,7.33
2023-04-26T23:59:42.240Z,7.47
